createdAt,value
2023-02-09T00:01:40.115Z,0.42
2023-02-09T00:04:10.760Z,0.39
2023-02-09T00:06:39.391Z,0.37
2023-02-09T00:09:08.727Z,0.37
2023-02-09T00:11:54.750Z,0.31
2023-02-09T00:14:23.146Z,0.32
2023-02-09T00:16:51.848Z,0.34
2023-02-09T00:19:22.589Z,0.23
2023-02-09T00:21:50.885Z,0.25
2023-02-09T00:24:19.317Z,0.16
2023-02-09T00:26:47.638Z,0.13
2023-02-09T00:29:17.305Z,0.12
2023-02-09T00:31:45.588Z,0.08
2023-02-09T00:34:15.217Z,0.03
2023-02-09T00:36:44.890Z,0.09
2023-02-09T00:39:13.158Z,0.16
2023-02-09T00:41:58.937Z,0.08
2023-02-09T00:44:27.269Z,0.02
2023-02-09T00:46:56.981Z,0.05
2023-02-09T00:49:25.283Z,0.04
2023-02-09T00:51:55.877Z,0.02
2023-02-09T00:54:24.393Z,-0.14
2023-02-09T00:56:52.702Z,-0.24
2023-02-09T00:59:20.909Z,-0.11
2023-02-09T01:01:49.176Z,-0.15
2023-02-09T01:04:17.493Z,-0.19
2023-02-09T01:06:48.606Z,-0.20
2023-02-09T01:09:19.285Z,-0.26
2023-02-09T01:11:47.471Z,-0.30
2023-02-09T01:14:15.666Z,-0.35
2023-02-09T01:16:44.029Z,-0.37
2023-02-09T01:19:13.951Z,-0.36
2023-02-09T01:21:43.229Z,-0.31
2023-02-09T01:24:15.400Z,-0.36
2023-02-09T01:26:45.061Z,-0.36
2023-02-09T01:29:15.332Z,-0.36
2023-02-09T01:31:43.863Z,-0.31
2023-02-09T01:34:14.208Z,-0.31
2023-02-09T01:36:42.721Z,-0.24
2023-02-09T01:39:12.354Z,-0.19
2023-02-09T01:41:42.504Z,-0.12
2023-02-09T01:44:50.569Z,-0.14
2023-02-09T01:47:21.370Z,-0.07
2023-02-09T01:49:51.229Z,-0.12
2023-02-09T01:52:22.586Z,-0.11
2023-02-09T01:54:54.116Z,-0.02
2023-02-09T01:57:26.375Z,-0.13
2023-02-09T01:59:58.990Z,-0.07
2023-02-09T02:02:31.951Z,-0.08
2023-02-09T02:05:00.834Z,-0.02
2023-02-09T02:07:32.468Z,-0.07
2023-02-09T02:10:02.243Z,-0.00
2023-02-09T02:12:30.785Z,0.06
2023-02-09T02:14:59.042Z,0.05
2023-02-09T02:17:43.381Z,0.09
2023-02-09T02:20:47.643Z,0.09
2023-02-09T02:23:29.251Z,0.06
2023-02-09T02:26:37.920Z,0.06
2023-02-09T02:29:37.724Z,-0.07
2023-02-09T02:32:19.528Z,-0.13
2023-02-09T02:34:54.297Z,-0.15
2023-02-09T02:37:40.015Z,-0.10
2023-02-09T02:40:19.834Z,-0.05
2023-02-09T02:42:53.417Z,-0.07
2023-02-09T02:45:33.858Z,-0.00
2023-02-09T02:48:13.450Z,0.05
2023-02-09T02:50:48.325Z,0.07
2023-02-09T02:53:19.791Z,0.05
2023-02-09T02:55:50.278Z,0.10
2023-02-09T02:58:21.878Z,0.04
2023-02-09T03:00:53.231Z,0.03
2023-02-09T03:03:26.393Z,-0.02
2023-02-09T03:05:55.206Z,-0.03
2023-02-09T03:08:23.405Z,-0.06
2023-02-09T03:10:52.184Z,-0.05
2023-02-09T03:13:38.117Z,-0.02
2023-02-09T03:16:28.360Z,-0.11
2023-02-09T03:19:07.817Z,-0.20
2023-02-09T03:21:46.403Z,-0.22
2023-02-09T03:24:20.881Z,-0.25
2023-02-09T03:26:53.069Z,-0.34
2023-02-09T03:29:23.637Z,-0.35
2023-02-09T03:31:52.771Z,-0.37
2023-02-09T03:34:22.575Z,-0.29
2023-02-09T03:36:53.269Z,-0.30
2023-02-09T03:39:21.492Z,-0.27
2023-02-09T03:41:49.718Z,-0.31
2023-02-09T03:44:29.928Z,-0.34
2023-02-09T03:47:00.011Z,-0.37
2023-02-09T03:49:35.976Z,-0.35
2023-02-09T03:52:05.098Z,-0.39
2023-02-09T03:54:34.506Z,-0.41
2023-02-09T03:57:02.916Z,-0.46
2023-02-09T03:59:31.362Z,-0.46
2023-02-09T04:02:00.338Z,-0.39
2023-02-09T04:04:28.727Z,-0.38
2023-02-09T04:06:58.839Z,-0.31
2023-02-09T04:09:28.533Z,-0.29
2023-02-09T04:11:57.021Z,-0.31
2023-02-09T04:14:25.464Z,-0.32
2023-02-09T04:16:53.976Z,-0.30
2023-02-09T04:19:22.187Z,-0.34
2023-02-09T04:21:50.386Z,-0.31
2023-02-09T04:24:28.951Z,-0.31
2023-02-09T04:26:57.222Z,-0.31
2023-02-09T04:29:25.586Z,-0.29
2023-02-09T04:31:53.995Z,-0.31
2023-02-09T04:34:24.153Z,-0.31
2023-02-09T04:36:52.607Z,-0.30
2023-02-09T04:39:20.855Z,-0.31
2023-02-09T04:41:50.499Z,-0.34
2023-02-09T04:44:18.787Z,-0.35
2023-02-09T04:46:47.019Z,-0.34
2023-02-09T04:49:15.266Z,-0.34
2023-02-09T04:51:43.455Z,-0.35
2023-02-09T04:54:11.669Z,-0.34
2023-02-09T04:56:39.938Z,-0.39
2023-02-09T04:59:27.874Z,-0.38
2023-02-09T05:01:56.061Z,-0.35
2023-02-09T05:04:24.263Z,-0.39
2023-02-09T05:06:52.473Z,-0.40
2023-02-09T05:09:20.737Z,-0.44
2023-02-09T05:11:49.020Z,-0.44
2023-02-09T05:14:18.621Z,-0.52
2023-02-09T05:16:46.934Z,-0.55
2023-02-09T05:19:15.173Z,-0.61
2023-02-09T05:21:43.440Z,-0.60
2023-02-09T05:24:11.761Z,-0.61
2023-02-09T05:26:40.008Z,-0.56
2023-02-09T05:29:08.329Z,-0.58
2023-02-09T05:31:38.252Z,-0.61
2023-02-09T05:34:06.628Z,-0.64
2023-02-09T05:36:34.814Z,-0.66
2023-02-09T05:39:03.139Z,-0.68
2023-02-09T05:41:48.720Z,-0.64
2023-02-09T05:44:17.414Z,-0.66
2023-02-09T05:46:47.088Z,-0.66
2023-02-09T05:49:15.344Z,-0.69
2023-02-09T05:51:43.573Z,-0.70
2023-02-09T05:54:11.829Z,-0.70
2023-02-09T05:56:40.796Z,-0.71
2023-02-09T05:59:09.075Z,-0.76
2023-02-09T06:01:37.408Z,-0.81
2023-02-09T06:04:07.349Z,-0.83
2023-02-09T06:06:35.559Z,-0.86
2023-02-09T06:09:04.618Z,-0.89
2023-02-09T06:11:33.054Z,-0.89
2023-02-09T06:14:01.342Z,-0.89
2023-02-09T06:16:29.570Z,-0.87
2023-02-09T06:18:57.832Z,-0.86
2023-02-09T06:21:27.470Z,-0.91
2023-02-09T06:23:55.690Z,-0.94
2023-02-09T06:26:23.884Z,-0.97
2023-02-09T06:28:52.115Z,-0.90
2023-02-09T06:31:20.419Z,-0.93
2023-02-09T06:33:48.816Z,-0.97
2023-02-09T06:36:17.073Z,-0.91
2023-02-09T06:38:46.694Z,-0.93
2023-02-09T06:41:14.960Z,-0.95
2023-02-09T06:43:43.194Z,-0.97
2023-02-09T06:46:13.497Z,-0.96
2023-02-09T06:48:41.899Z,-1.02
2023-02-09T06:51:10.984Z,-1.02
2023-02-09T06:53:40.303Z,-1.03
2023-02-09T06:56:10.827Z,-1.03
2023-02-09T06:58:40.075Z,-1.03
2023-02-09T07:01:11.478Z,-0.99
2023-02-09T07:03:40.031Z,-1.00
2023-02-09T07:06:11.871Z,-1.02
2023-02-09T07:08:41.872Z,-1.04
2023-02-09T07:11:13.760Z,-1.06
2023-02-09T07:13:57.105Z,-1.10
2023-02-09T07:16:25.631Z,-1.09
2023-02-09T07:18:53.940Z,-1.09
2023-02-09T07:21:22.671Z,-1.09
2023-02-09T07:23:52.594Z,-1.03
2023-02-09T07:26:22.300Z,-0.94
2023-02-09T07:28:50.562Z,-0.94
2023-02-09T07:31:18.988Z,-0.95
2023-02-09T07:33:47.379Z,-0.91
2023-02-09T07:36:19.304Z,-0.86
2023-02-09T07:38:47.709Z,-0.81
2023-02-09T07:41:18.788Z,-0.84
2023-02-09T07:43:48.772Z,-0.76
2023-02-09T07:46:18.893Z,-0.68
2023-02-09T07:48:47.218Z,-0.66
2023-02-09T07:51:16.038Z,-0.61
2023-02-09T07:53:44.601Z,-0.58
2023-02-09T07:56:12.881Z,-0.54
2023-02-09T07:58:41.126Z,-0.45
2023-02-09T08:01:13.964Z,-0.41
2023-02-09T08:03:45.435Z,-0.34
2023-02-09T08:06:19.798Z,-0.27
2023-02-09T08:08:49.217Z,-0.16
2023-02-09T08:11:21.256Z,-0.09
2023-02-09T08:13:50.913Z,-0.12
2023-02-09T08:16:23.890Z,-0.00
2023-02-09T08:18:55.766Z,0.02
2023-02-09T08:21:24.895Z,0.05
2023-02-09T08:23:55.565Z,0.10
2023-02-09T08:26:24.109Z,0.13
2023-02-09T08:28:53.485Z,0.17
2023-02-09T08:31:23.276Z,0.22
2023-02-09T08:33:52.721Z,0.25
2023-02-09T08:36:21.457Z,0.33
2023-02-09T08:38:49.933Z,0.35
2023-02-09T08:41:19.597Z,0.39
2023-02-09T08:43:51.964Z,0.51
2023-02-09T08:46:22.132Z,0.50
2023-02-09T08:48:50.405Z,0.52
2023-02-09T08:51:19.113Z,0.61
2023-02-09T08:53:52.422Z,0.71
2023-02-09T08:56:21.893Z,0.75
2023-02-09T08:58:50.815Z,0.79
2023-02-09T09:01:19.213Z,0.87
2023-02-09T09:03:49.469Z,0.88
2023-02-09T09:06:17.825Z,0.94
2023-02-09T09:08:46.174Z,1.03
2023-02-09T09:11:14.912Z,0.99
2023-02-09T09:13:43.319Z,1.06
2023-02-09T09:16:15.795Z,1.08
2023-02-09T09:18:45.347Z,1.19
2023-02-09T09:21:17.062Z,1.33
2023-02-09T09:23:46.248Z,1.36
2023-02-09T09:26:14.777Z,1.43
2023-02-09T09:28:43.180Z,1.52
2023-02-09T09:31:12.929Z,1.64
2023-02-09T09:33:42.784Z,1.75
2023-02-09T09:36:11.889Z,1.84
2023-02-09T09:38:42.732Z,1.84
2023-02-09T09:41:22.138Z,1.73
2023-02-09T09:43:50.902Z,1.85
2023-02-09T09:46:22.170Z,1.90
2023-02-09T09:48:54.324Z,2.09
2023-02-09T09:51:31.937Z,2.16
2023-02-09T09:54:04.786Z,2.16
2023-02-09T09:56:34.216Z,2.30
2023-02-09T09:59:03.019Z,2.37
2023-02-09T10:01:33.607Z,2.42
2023-02-09T10:04:07.486Z,2.53
2023-02-09T10:06:35.722Z,2.62
2023-02-09T10:09:11.000Z,2.75
2023-02-09T10:11:47.002Z,2.87
2023-02-09T10:14:15.913Z,2.98
2023-02-09T10:16:46.025Z,2.99
2023-02-09T10:19:20.374Z,3.21
2023-02-09T10:21:49.611Z,3.40
2023-02-09T10:24:24.417Z,3.59
2023-02-09T10:27:08.816Z,3.76
2023-02-09T10:29:37.606Z,3.77
2023-02-09T10:32:09.251Z,4.16
2023-02-09T10:34:45.167Z,4.36
2023-02-09T10:37:21.373Z,4.19
2023-02-09T10:40:11.348Z,4.30
2023-02-09T10:42:42.940Z,4.66
2023-02-09T10:45:17.048Z,4.72
2023-02-09T10:47:59.095Z,4.86
2023-02-09T10:50:27.395Z,4.73
2023-02-09T10:52:59.570Z,4.84
2023-02-09T10:55:35.897Z,4.86
2023-02-09T10:58:26.886Z,4.98
2023-02-09T11:01:01.637Z,5.08
2023-02-09T11:03:30.338Z,5.26
2023-02-09T11:06:00.916Z,5.53
2023-02-09T11:08:40.244Z,5.63
2023-02-09T11:11:19.419Z,5.79
2023-02-09T11:13:47.883Z,5.49
2023-02-09T11:16:53.570Z,5.30
2023-02-09T11:19:56.271Z,5.34
2023-02-09T11:22:43.889Z,5.41
2023-02-09T11:25:22.965Z,5.56
2023-02-09T11:28:29.974Z,5.85
2023-02-09T11:31:18.564Z,6.08
2023-02-09T11:33:58.832Z,6.06
2023-02-09T11:36:41.887Z,5.94
2023-02-09T11:39:17.295Z,5.84
2023-02-09T11:42:07.686Z,6.21
2023-02-09T11:44:40.508Z,6.13
2023-02-09T11:47:15.450Z,6.25
2023-02-09T11:49:46.582Z,5.93
2023-02-09T11:52:19.421Z,6.08
2023-02-09T11:54:50.758Z,6.08
2023-02-09T11:57:27.727Z,5.97
2023-02-09T12:00:00.270Z,5.79
2023-02-09T12:02:46.144Z,5.70
2023-02-09T12:05:19.322Z,5.90
2023-02-09T12:08:04.670Z,5.79
2023-02-09T12:10:39.084Z,5.95
2023-02-09T12:13:19.882Z,6.04
2023-02-09T12:15:51.566Z,6.31
2023-02-09T12:18:23.850Z,6.35
2023-02-09T12:20:54.437Z,6.49
2023-02-09T12:23:31.835Z,6.67
2023-02-09T12:26:01.645Z,6.84
2023-02-09T12:28:42.300Z,6.80
2023-02-09T12:31:16.936Z,6.69
2023-02-09T12:34:28.698Z,6.63
2023-02-09T12:37:18.073Z,6.52
2023-02-09T12:40:18.382Z,6.41
2023-02-09T12:43:04.030Z,6.38
2023-02-09T12:45:36.005Z,6.50
2023-02-09T12:48:14.451Z,6.48
2023-02-09T12:50:53.984Z,6.70
2023-02-09T12:53:56.193Z,6.87
2023-02-09T12:56:35.199Z,6.97
2023-02-09T12:59:18.980Z,6.91
2023-02-09T13:02:16.846Z,7.01
2023-02-09T13:04:58.643Z,7.24
2023-02-09T13:07:41.047Z,7.26
2023-02-09T13:10:20.566Z,7.00
2023-02-09T13:12:55.379Z,7.03
2023-02-09T13:15:23.606Z,6.93
2023-02-09T13:18:07.854Z,6.96
2023-02-09T13:21:14.620Z,7.33
2023-02-09T13:23:56.484Z,7.26
2023-02-09T13:26:27.341Z,7.12
2023-02-09T13:29:19.917Z,7.11
2023-02-09T13:31:59.150Z,7.14
2023-02-09T13:34:35.794Z,7.19
2023-02-09T13:37:23.490Z,7.15
2023-02-09T13:40:00.815Z,6.96
2023-02-09T13:42:31.139Z,7.04
2023-02-09T13:45:00.906Z,6.87
2023-02-09T13:47:29.689Z,6.83
2023-02-09T13:50:00.133Z,6.85
2023-02-09T13:52:34.973Z,6.72
2023-02-09T13:55:19.178Z,6.63
2023-02-09T13:57:51.117Z,6.51
2023-02-09T14:00:27.044Z,6.59
2023-02-09T14:02:58.701Z,6.66
2023-02-09T14:05:35.365Z,7.04
2023-02-09T14:08:04.278Z,7.33
2023-02-09T14:10:35.635Z,7.56
2023-02-09T14:13:06.353Z,7.58
2023-02-09T14:15:56.329Z,7.87
2023-02-09T14:18:41.022Z,7.83
2023-02-09T14:21:24.269Z,7.85
2023-02-09T14:24:15.280Z,7.79
2023-02-09T14:26:48.864Z,7.55
2023-02-09T14:29:20.378Z,7.53
2023-02-09T14:31:50.308Z,7.44
2023-02-09T14:34:35.325Z,7.38
2023-02-09T14:37:25.451Z,7.35
2023-02-09T14:39:54.847Z,7.10
2023-02-09T14:42:25.184Z,6.99
2023-02-09T14:44:56.434Z,6.99
2023-02-09T14:47:42.150Z,6.96
2023-02-09T14:50:14.607Z,6.99
2023-02-09T14:52:47.195Z,6.99
2023-02-09T14:55:18.511Z,6.88
2023-02-09T14:57:48.534Z,6.85
2023-02-09T15:00:19.402Z,6.80
2023-02-09T15:02:48.349Z,6.70
2023-02-09T15:05:17.067Z,6.67
2023-02-09T15:07:48.282Z,6.73
2023-02-09T15:10:24.573Z,6.76
2023-02-09T15:12:54.893Z,6.69
2023-02-09T15:15:24.069Z,6.60
2023-02-09T15:17:54.266Z,6.53
2023-02-09T15:20:25.377Z,6.50
2023-02-09T15:22:53.864Z,6.45
2023-02-09T15:25:23.258Z,6.43
2023-02-09T15:27:54.840Z,6.41
2023-02-09T15:30:24.739Z,6.36
2023-02-09T15:32:53.565Z,6.28
2023-02-09T15:35:23.728Z,6.20
2023-02-09T15:37:55.600Z,6.19
2023-02-09T15:40:43.422Z,6.19
2023-02-09T15:43:32.476Z,6.19
2023-02-09T15:46:18.319Z,6.12
2023-02-09T15:48:46.689Z,6.10
2023-02-09T15:51:15.741Z,6.08
2023-02-09T15:53:45.181Z,5.98
2023-02-09T15:56:15.745Z,5.99
2023-02-09T15:58:48.219Z,5.98
2023-02-09T16:01:18.298Z,5.94
2023-02-09T16:03:46.846Z,5.96
2023-02-09T16:06:20.149Z,5.99
2023-02-09T16:08:51.473Z,5.95
2023-02-09T16:11:22.869Z,5.94
2023-02-09T16:13:52.627Z,5.94
2023-02-09T16:16:21.111Z,5.93
2023-02-09T16:18:49.363Z,5.89
2023-02-09T16:21:23.780Z,5.86
2023-02-09T16:23:53.677Z,5.86
2023-02-09T16:26:23.141Z,5.85
2023-02-09T16:28:54.049Z,5.78
2023-02-09T16:31:22.990Z,5.77
2023-02-09T16:33:51.746Z,5.72
2023-02-09T16:36:29.764Z,5.66
2023-02-09T16:38:58.126Z,5.56
2023-02-09T16:41:43.986Z,5.54
2023-02-09T16:44:18.467Z,5.55
2023-02-09T16:46:48.733Z,5.54
2023-02-09T16:49:33.105Z,5.48
2023-02-09T16:52:05.721Z,5.43
2023-02-09T16:54:40.921Z,5.49
2023-02-09T16:57:14.979Z,5.49
2023-02-09T16:59:46.066Z,5.49
2023-02-09T17:02:34.015Z,5.53
2023-02-09T17:05:03.794Z,5.54
2023-02-09T17:07:45.390Z,5.53
2023-02-09T17:10:23.367Z,5.49
2023-02-09T17:12:53.628Z,5.50
2023-02-09T17:15:31.230Z,5.55
2023-02-09T17:18:04.638Z,5.52
2023-02-09T17:20:38.549Z,5.53
2023-02-09T17:23:07.089Z,5.54
2023-02-09T17:25:38.467Z,5.52
2023-02-09T17:28:06.775Z,5.48
2023-02-09T17:30:40.089Z,5.50
2023-02-09T17:33:12.168Z,5.48
2023-02-09T17:38:32.858Z,5.45
2023-02-09T17:41:04.959Z,5.49
2023-02-09T17:43:33.418Z,5.47
2023-02-09T17:46:05.289Z,5.46
2023-02-09T17:48:33.626Z,5.48
2023-02-09T17:51:02.792Z,5.47
2023-02-09T17:53:35.391Z,5.45
2023-02-09T17:56:03.643Z,5.49
2023-02-09T17:58:31.934Z,5.48
2023-02-09T18:01:00.456Z,5.52
2023-02-09T18:03:32.774Z,5.46
2023-02-09T18:06:03.088Z,5.48
2023-02-09T18:08:31.319Z,5.48
2023-02-09T18:10:59.563Z,5.48
2023-02-09T18:13:30.047Z,5.48
2023-02-09T18:15:58.316Z,5.46
2023-02-09T18:18:26.732Z,5.47
2023-02-09T18:20:56.480Z,5.50
2023-02-09T18:23:24.834Z,5.49
2023-02-09T18:25:53.255Z,5.49
2023-02-09T18:28:21.608Z,5.47
2023-02-09T18:30:50.017Z,5.47
2023-02-09T18:33:18.907Z,5.46
2023-02-09T18:35:47.470Z,5.48
2023-02-09T18:38:17.369Z,5.48
2023-02-09T18:40:45.697Z,5.45
2023-02-09T18:43:15.745Z,5.43
2023-02-09T18:45:44.561Z,5.40
2023-02-09T18:48:13.387Z,5.42
2023-02-09T18:50:42.517Z,5.35
2023-02-09T18:53:13.138Z,5.35
2023-02-09T18:55:43.731Z,5.35
2023-02-09T18:58:14.585Z,5.38
2023-02-09T19:00:43.151Z,5.43
2023-02-09T19:03:13.163Z,5.36
2023-02-09T19:05:42.573Z,5.38
2023-02-09T19:08:11.037Z,5.37
2023-02-09T19:10:40.952Z,5.37
2023-02-09T19:13:11.128Z,5.33
2023-02-09T19:15:40.115Z,5.41
2023-02-09T19:18:08.453Z,5.37
2023-02-09T19:20:36.993Z,5.37
2023-02-09T19:23:07.642Z,5.35
2023-02-09T19:25:36.229Z,5.34
2023-02-09T19:28:04.546Z,5.37
2023-02-09T19:30:34.395Z,5.39
2023-02-09T19:33:02.716Z,5.38
2023-02-09T19:35:31.960Z,5.37
2023-02-09T19:38:00.547Z,5.37
2023-02-09T19:40:35.582Z,5.32
2023-02-09T19:43:04.606Z,5.34
2023-02-09T19:45:37.783Z,5.36
2023-02-09T19:48:07.392Z,5.36
2023-02-09T19:50:36.865Z,5.36
2023-02-09T19:53:07.011Z,5.37
2023-02-09T19:55:35.937Z,5.34
2023-02-09T19:58:04.205Z,5.27
2023-02-09T20:00:33.978Z,5.33
2023-02-09T20:03:02.337Z,5.33
2023-02-09T20:05:30.606Z,5.33
2023-02-09T20:07:59.065Z,5.36
2023-02-09T20:10:27.401Z,5.33
2023-02-09T20:12:55.644Z,5.28
2023-02-09T20:15:23.944Z,5.25
2023-02-09T20:17:53.732Z,5.27
2023-02-09T20:20:21.970Z,5.24
2023-02-09T20:22:51.293Z,5.23
2023-02-09T20:25:25.603Z,5.22
2023-02-09T20:27:53.943Z,5.24
2023-02-09T20:30:22.271Z,5.27
2023-02-09T20:32:54.832Z,5.24
2023-02-09T20:35:23.239Z,5.24
2023-02-09T20:37:52.856Z,5.17
2023-02-09T20:40:21.698Z,5.24
2023-02-09T20:43:07.610Z,5.23
2023-02-09T20:45:55.552Z,5.21
2023-02-09T20:48:25.232Z,5.18
2023-02-09T20:50:53.465Z,5.16
2023-02-09T20:53:22.460Z,5.18
2023-02-09T20:55:51.005Z,5.22
2023-02-09T20:58:20.137Z,5.18
2023-02-09T21:00:48.879Z,5.21
2023-02-09T21:03:17.485Z,5.17
2023-02-09T21:05:47.162Z,5.10
2023-02-09T21:08:15.548Z,5.13
2023-02-09T21:10:43.827Z,5.12
2023-02-09T21:13:12.883Z,5.09
2023-02-09T21:15:42.818Z,5.03
2023-02-09T21:18:11.236Z,5.09
2023-02-09T21:20:40.325Z,5.07
2023-02-09T21:23:09.984Z,5.03
2023-02-09T21:25:38.422Z,4.94
2023-02-09T21:28:06.935Z,5.00
2023-02-09T21:30:35.215Z,4.98
2023-02-09T21:33:03.476Z,5.03
2023-02-09T21:35:31.924Z,5.02
2023-02-09T21:38:00.584Z,5.06
2023-02-09T21:40:30.176Z,5.05
2023-02-09T21:42:58.417Z,5.04
2023-02-09T21:45:27.409Z,4.94
2023-02-09T21:47:55.816Z,4.83
2023-02-09T21:50:24.132Z,4.72
2023-02-09T21:52:54.389Z,4.65
2023-02-09T21:55:23.068Z,4.64
2023-02-09T21:57:52.767Z,4.62
2023-02-09T22:00:21.457Z,4.52
2023-02-09T22:02:53.267Z,4.50
2023-02-09T22:05:21.583Z,4.46
2023-02-09T22:07:51.047Z,4.50
2023-02-09T22:10:19.483Z,4.58
2023-02-09T22:12:48.039Z,4.61
2023-02-09T22:15:19.167Z,4.57
2023-02-09T22:17:48.369Z,4.61
2023-02-09T22:20:16.868Z,4.62
2023-02-09T22:22:46.151Z,4.53
2023-02-09T22:25:14.445Z,4.47
2023-02-09T22:27:42.865Z,4.39
2023-02-09T22:30:12.177Z,4.27
2023-02-09T22:32:42.056Z,4.13
2023-02-09T22:35:10.344Z,3.99
2023-02-09T22:37:39.412Z,3.83
2023-02-09T22:40:08.401Z,3.68
2023-02-09T22:42:36.718Z,3.57
2023-02-09T22:45:05.910Z,3.42
2023-02-09T22:47:35.324Z,3.30
2023-02-09T22:50:05.376Z,3.19
2023-02-09T22:52:33.739Z,3.12
2023-02-09T22:55:01.979Z,3.02
2023-02-09T22:57:30.220Z,2.97
2023-02-09T22:59:58.565Z,2.97
2023-02-09T23:02:26.876Z,2.98
2023-02-09T23:04:55.124Z,2.95
2023-02-09T23:07:25.469Z,2.90
2023-02-09T23:09:53.857Z,2.81
2023-02-09T23:12:22.078Z,2.79
2023-02-09T23:14:50.352Z,2.76
2023-02-09T23:17:18.612Z,2.72
2023-02-09T23:19:46.950Z,2.69
2023-02-09T23:22:15.241Z,2.62
2023-02-09T23:24:45.182Z,2.54
2023-02-09T23:27:13.414Z,2.46
2023-02-09T23:29:41.769Z,2.41
2023-02-09T23:32:10.036Z,2.32
2023-02-09T23:34:39.143Z,2.31
2023-02-09T23:37:18.103Z,2.27
2023-02-09T23:39:57.003Z,2.17
2023-02-09T23:42:25.327Z,2.15
2023-02-09T23:44:53.612Z,2.07
2023-02-09T23:47:22.154Z,2.08
2023-02-09T23:49:50.750Z,2.10
2023-02-09T23:52:19.022Z,2.05
2023-02-09T23:54:47.243Z,1.99
2023-02-09T23:57:17.949Z,1.96
2023-02-09T23:59:46.210Z,1.90
